TVP7272 EPKT-LTFE
Flight info
| Callsign | TVP7272 |
|---|---|
| Flight time | 2h 18m |
| Altitude | 37000 |
| Route | BABKO DCT DEMOP DCT OSTOV N127 NIKTI UN127 IMR/N0415F270 G80 AKBUK |
| Aircraft | B738/M-SDE3FGHIJ1RWXY/LB1 |
Departure
| Time | 2026-05-01 09:41 |
|---|---|
| Airport | Katowice Wojciech Korfanty International Airport (EPKT) |
Arrival
| Time | 2026-05-01 11:59 |
|---|---|
| Airport | Milas Bodrum International Airport (LTFE) |
| Time | Latitude | Longitude | Altitude | Speed | Heading |
|---|---|---|---|---|---|
| 2026-05-01 09:16 | 50.47141 | 19.09284 | 997 ft | 0 kts | 180° |
| 2026-05-01 09:32 | 50.47149 | 19.09284 | 1000 ft | 4 kts | 180° |
| 2026-05-01 09:32 | 50.47202 | 19.09281 | 998 ft | 4 kts | 160° |
| 2026-05-01 09:32 | 50.47224 | 19.09260 | 997 ft | 4 kts | 123° |
| 2026-05-01 09:33 | 50.47231 | 19.09233 | 997 ft | 1 kts | 90° |
| 2026-05-01 09:33 | 50.47231 | 19.09228 | 997 ft | 0 kts | 90° |
| 2026-05-01 09:36 | 50.47231 | 19.09259 | 997 ft | 5 kts | 90° |
| 2026-05-01 09:36 | 50.47230 | 19.09312 | 1000 ft | 5 kts | 90° |
| 2026-05-01 09:36 | 50.47230 | 19.09366 | 1003 ft | 5 kts | 90° |
| 2026-05-01 09:36 | 50.47230 | 19.09420 | 999 ft | 5 kts | 90° |
| 2026-05-01 09:37 | 50.47230 | 19.09473 | 1003 ft | 5 kts | 90° |
| 2026-05-01 09:37 | 50.47229 | 19.09575 | 1003 ft | 5 kts | 90° |
| 2026-05-01 09:37 | 50.47229 | 19.09635 | 999 ft | 7 kts | 90° |
| 2026-05-01 09:38 | 50.47229 | 19.09858 | 1000 ft | 13 kts | 90° |
| 2026-05-01 09:38 | 50.47235 | 19.10016 | 999 ft | 16 kts | 66° |
| 2026-05-01 09:38 | 50.47305 | 19.10163 | 1001 ft | 18 kts | 52° |
| 2026-05-01 09:39 | 50.47493 | 19.10448 | 998 ft | 20 kts | 360° |
| 2026-05-01 09:39 | 50.47555 | 19.10441 | 999 ft | 7 kts | 341° |
| 2026-05-01 09:39 | 50.47594 | 19.10346 | 1000 ft | 15 kts | 264° |
| 2026-05-01 09:40 | 50.47596 | 19.10169 | 1001 ft | 19 kts | 270° |
| 2026-05-01 09:40 | 50.47599 | 19.08540 | 997 ft | 134 kts | 270° |
| 2026-05-01 09:40 | 50.47598 | 19.06821 | 1071 ft | 175 kts | 273° |
| 2026-05-01 09:41 | 50.47602 | 19.04913 | 1786 ft | 175 kts | 273° |
| 2026-05-01 09:41 | 50.47622 | 19.00690 | 2614 ft | 218 kts | 272° |
| 2026-05-01 09:41 | 50.47630 | 18.98326 | 3079 ft | 228 kts | 269° |
| 2026-05-01 09:42 | 50.47118 | 18.95920 | 3697 ft | 240 kts | 236° |
| 2026-05-01 09:42 | 50.45817 | 18.94207 | 4246 ft | 259 kts | 206° |
| 2026-05-01 09:42 | 50.42166 | 18.94398 | 5437 ft | 280 kts | 158° |
| 2026-05-01 09:43 | 50.38528 | 18.96787 | 6870 ft | 289 kts | 154° |
| 2026-05-01 09:43 | 50.36679 | 18.98054 | 7594 ft | 291 kts | 153° |
| 2026-05-01 09:43 | 50.34814 | 18.99321 | 8330 ft | 294 kts | 153° |
| 2026-05-01 09:44 | 50.31004 | 19.01875 | 9781 ft | 301 kts | 153° |
| 2026-05-01 09:44 | 50.29064 | 19.03160 | 10468 ft | 305 kts | 153° |
| 2026-05-01 09:44 | 50.27091 | 19.04466 | 10775 ft | 323 kts | 152° |
| 2026-05-01 09:45 | 50.24954 | 19.05879 | 10951 ft | 344 kts | 153° |
| 2026-05-01 09:45 | 50.20370 | 19.08880 | 11866 ft | 364 kts | 153° |
| 2026-05-01 09:45 | 50.18025 | 19.10403 | 12541 ft | 367 kts | 153° |
| 2026-05-01 09:46 | 50.15655 | 19.11940 | 13217 ft | 371 kts | 153° |
| 2026-05-01 09:46 | 50.13259 | 19.13495 | 13905 ft | 375 kts | 153° |
| 2026-05-01 09:46 | 50.10832 | 19.15068 | 14548 ft | 380 kts | 152° |
| 2026-05-01 09:46 | 50.08385 | 19.16653 | 15211 ft | 382 kts | 152° |
| 2026-05-01 09:47 | 50.05920 | 19.18248 | 15878 ft | 385 kts | 152° |
| 2026-05-01 09:47 | 50.03442 | 19.19850 | 16530 ft | 388 kts | 152° |
| 2026-05-01 09:47 | 50.00951 | 19.21460 | 17174 ft | 392 kts | 152° |
| 2026-05-01 09:47 | 49.98426 | 19.23090 | 17818 ft | 396 kts | 152° |
| 2026-05-01 09:48 | 49.95867 | 19.24740 | 18458 ft | 399 kts | 151° |
| 2026-05-01 09:48 | 49.93306 | 19.26389 | 19038 ft | 402 kts | 151° |
| 2026-05-01 09:48 | 49.90721 | 19.28052 | 19590 ft | 405 kts | 151° |
| 2026-05-01 09:48 | 49.88112 | 19.29727 | 20140 ft | 408 kts | 151° |
| 2026-05-01 09:49 | 49.85451 | 19.31435 | 20678 ft | 412 kts | 151° |
| 2026-05-01 09:49 | 49.82833 | 19.33113 | 21197 ft | 415 kts | 150° |
| 2026-05-01 09:49 | 49.80150 | 19.34831 | 21711 ft | 419 kts | 150° |
| 2026-05-01 09:49 | 49.77432 | 19.36570 | 22263 ft | 423 kts | 150° |
| 2026-05-01 09:50 | 49.74719 | 19.38302 | 22767 ft | 426 kts | 150° |
| 2026-05-01 09:50 | 49.71973 | 19.40051 | 23276 ft | 428 kts | 150° |
| 2026-05-01 09:50 | 49.69226 | 19.41801 | 23750 ft | 432 kts | 150° |
| 2026-05-01 09:50 | 49.66440 | 19.43574 | 24191 ft | 434 kts | 150° |
| 2026-05-01 09:51 | 49.63648 | 19.45348 | 24632 ft | 436 kts | 150° |
| 2026-05-01 09:51 | 49.60828 | 19.47102 | 25051 ft | 441 kts | 153° |
| 2026-05-01 09:51 | 49.57864 | 19.48546 | 25421 ft | 449 kts | 156° |
| 2026-05-01 09:51 | 49.54850 | 19.49816 | 25765 ft | 453 kts | 158° |
| 2026-05-01 09:52 | 49.51807 | 19.51033 | 26143 ft | 455 kts | 159° |
| 2026-05-01 09:52 | 49.48737 | 19.52251 | 26521 ft | 457 kts | 159° |
| 2026-05-01 09:52 | 49.45652 | 19.53488 | 26895 ft | 459 kts | 158° |
| 2026-05-01 09:52 | 49.42556 | 19.54749 | 27253 ft | 462 kts | 158° |
| 2026-05-01 09:53 | 49.39438 | 19.56034 | 27615 ft | 465 kts | 158° |
| 2026-05-01 09:53 | 49.36331 | 19.57325 | 27927 ft | 468 kts | 158° |
| 2026-05-01 09:53 | 49.33177 | 19.58640 | 28263 ft | 470 kts | 158° |
| 2026-05-01 09:53 | 49.30005 | 19.59961 | 28620 ft | 472 kts | 158° |
| 2026-05-01 09:54 | 49.26830 | 19.61283 | 28943 ft | 473 kts | 158° |
| 2026-05-01 09:54 | 49.23643 | 19.62608 | 29241 ft | 476 kts | 158° |
| 2026-05-01 09:54 | 49.20477 | 19.63919 | 29523 ft | 479 kts | 158° |
| 2026-05-01 09:54 | 49.17251 | 19.65253 | 29834 ft | 481 kts | 158° |
| 2026-05-01 09:55 | 49.14012 | 19.66595 | 30128 ft | 483 kts | 158° |
| 2026-05-01 09:55 | 49.10760 | 19.67940 | 30411 ft | 485 kts | 158° |
| 2026-05-01 09:55 | 49.07500 | 19.69285 | 30621 ft | 487 kts | 158° |
| 2026-05-01 09:55 | 49.04221 | 19.70636 | 30861 ft | 489 kts | 158° |
| 2026-05-01 09:56 | 49.00934 | 19.71988 | 31110 ft | 490 kts | 158° |
| 2026-05-01 09:56 | 48.97654 | 19.73334 | 31457 ft | 490 kts | 158° |
| 2026-05-01 09:56 | 48.94367 | 19.74680 | 31795 ft | 489 kts | 157° |
| 2026-05-01 09:56 | 48.91131 | 19.76002 | 32172 ft | 487 kts | 157° |
| 2026-05-01 09:57 | 48.87871 | 19.77335 | 32545 ft | 485 kts | 157° |
| 2026-05-01 09:57 | 48.84611 | 19.78666 | 32837 ft | 485 kts | 157° |
| 2026-05-01 09:57 | 48.81351 | 19.79997 | 33111 ft | 485 kts | 157° |
| 2026-05-01 09:57 | 48.78092 | 19.81326 | 33419 ft | 485 kts | 157° |
| 2026-05-01 09:58 | 48.74836 | 19.82652 | 33730 ft | 484 kts | 157° |
| 2026-05-01 09:58 | 48.71582 | 19.83974 | 34037 ft | 484 kts | 157° |
| 2026-05-01 09:58 | 48.68355 | 19.85283 | 34323 ft | 483 kts | 157° |
| 2026-05-01 09:58 | 48.65141 | 19.86586 | 34608 ft | 481 kts | 157° |
| 2026-05-01 09:59 | 48.61893 | 19.87899 | 34863 ft | 481 kts | 157° |
| 2026-05-01 09:59 | 48.58654 | 19.89209 | 35071 ft | 483 kts | 157° |
| 2026-05-01 09:59 | 48.55421 | 19.90516 | 35240 ft | 484 kts | 157° |
| 2026-05-01 09:59 | 48.52146 | 19.91838 | 35397 ft | 485 kts | 157° |
| 2026-05-01 10:00 | 48.48926 | 19.93134 | 35679 ft | 483 kts | 158° |
| 2026-05-01 10:00 | 48.45684 | 19.94435 | 35940 ft | 482 kts | 158° |
| 2026-05-01 10:00 | 48.42426 | 19.95743 | 36131 ft | 483 kts | 158° |
| 2026-05-01 10:00 | 48.39190 | 19.97043 | 36244 ft | 485 kts | 158° |
| 2026-05-01 10:01 | 48.35948 | 19.98343 | 36406 ft | 486 kts | 158° |
| 2026-05-01 10:01 | 48.32664 | 19.99656 | 36627 ft | 485 kts | 158° |
| 2026-05-01 10:01 | 48.29527 | 20.00908 | 36844 ft | 485 kts | 158° |
| 2026-05-01 10:01 | 48.26262 | 20.02211 | 37040 ft | 485 kts | 159° |
| 2026-05-01 10:02 | 48.23022 | 20.03503 | 37187 ft | 485 kts | 159° |
| 2026-05-01 10:02 | 48.19765 | 20.04816 | 37318 ft | 485 kts | 156° |
| 2026-05-01 10:02 | 48.13724 | 20.08988 | 37352 ft | 471 kts | 140° |
| 2026-05-01 10:03 | 48.08244 | 20.14214 | 37341 ft | 469 kts | 140° |
| 2026-05-01 10:03 | 48.02741 | 20.19435 | 37346 ft | 469 kts | 140° |
| 2026-05-01 10:04 | 47.97250 | 20.24573 | 37350 ft | 468 kts | 141° |
| 2026-05-01 10:04 | 47.91696 | 20.29725 | 37363 ft | 468 kts | 141° |
| 2026-05-01 10:05 | 47.86164 | 20.34838 | 37360 ft | 468 kts | 141° |
| 2026-05-01 10:05 | 47.80650 | 20.39919 | 37355 ft | 468 kts | 141° |
| 2026-05-01 10:06 | 47.75117 | 20.45008 | 37355 ft | 468 kts | 141° |
| 2026-05-01 10:06 | 47.69609 | 20.50062 | 37359 ft | 467 kts | 141° |
| 2026-05-01 10:07 | 47.64100 | 20.55106 | 37395 ft | 467 kts | 142° |
| 2026-05-01 10:07 | 47.58556 | 20.60167 | 37373 ft | 467 kts | 142° |
| 2026-05-01 10:08 | 47.50280 | 20.67700 | 37363 ft | 466 kts | 142° |
| 2026-05-01 10:09 | 47.44783 | 20.72687 | 37353 ft | 466 kts | 142° |
| 2026-05-01 10:09 | 47.39244 | 20.77700 | 37363 ft | 466 kts | 142° |
| 2026-05-01 10:10 | 47.33711 | 20.82697 | 37356 ft | 466 kts | 142° |
| 2026-05-01 10:10 | 47.25437 | 20.90143 | 37360 ft | 466 kts | 142° |
| 2026-05-01 10:11 | 47.19889 | 20.95120 | 37353 ft | 466 kts | 142° |
| 2026-05-01 10:11 | 47.14391 | 21.00042 | 37355 ft | 466 kts | 142° |
| 2026-05-01 10:12 | 47.08942 | 21.04908 | 37361 ft | 467 kts | 143° |
| 2026-05-01 10:13 | 47.00594 | 21.12339 | 37355 ft | 468 kts | 143° |
| 2026-05-01 10:13 | 46.95048 | 21.17260 | 37350 ft | 468 kts | 143° |
| 2026-05-01 10:14 | 46.86707 | 21.24639 | 37349 ft | 469 kts | 143° |
| 2026-05-01 10:14 | 46.81107 | 21.29577 | 37343 ft | 470 kts | 144° |
| 2026-05-01 10:15 | 46.75523 | 21.34490 | 37344 ft | 470 kts | 144° |
| 2026-05-01 10:15 | 46.69908 | 21.39419 | 37343 ft | 470 kts | 144° |
| 2026-05-01 10:16 | 46.64311 | 21.44319 | 37341 ft | 471 kts | 144° |
| 2026-05-01 10:17 | 46.55896 | 21.51663 | 37341 ft | 471 kts | 145° |
| 2026-05-01 10:17 | 46.47482 | 21.58980 | 37331 ft | 471 kts | 145° |
| 2026-05-01 10:18 | 46.39068 | 21.66270 | 37329 ft | 471 kts | 145° |
| 2026-05-01 10:19 | 46.33439 | 21.71133 | 37324 ft | 470 kts | 145° |
| 2026-05-01 10:19 | 46.27833 | 21.75964 | 37330 ft | 470 kts | 145° |
| 2026-05-01 10:20 | 46.19441 | 21.83175 | 37325 ft | 471 kts | 145° |
| 2026-05-01 10:20 | 46.13783 | 21.88021 | 37311 ft | 471 kts | 146° |
| 2026-05-01 10:21 | 46.05369 | 21.95207 | 37339 ft | 470 kts | 146° |
| 2026-05-01 10:22 | 45.97033 | 22.02300 | 37320 ft | 471 kts | 146° |
| 2026-05-01 10:23 | 45.88591 | 22.09459 | 37314 ft | 471 kts | 146° |
| 2026-05-01 10:23 | 45.80124 | 22.16613 | 37327 ft | 471 kts | 147° |
| 2026-05-01 10:24 | 45.68827 | 22.26119 | 37312 ft | 471 kts | 147° |
| 2026-05-01 10:25 | 45.57547 | 22.35564 | 37306 ft | 471 kts | 147° |
| 2026-05-01 10:26 | 45.51893 | 22.40283 | 37308 ft | 471 kts | 147° |
| 2026-05-01 10:27 | 45.40593 | 22.49679 | 37300 ft | 470 kts | 148° |
| 2026-05-01 10:28 | 45.32130 | 22.56688 | 37297 ft | 469 kts | 148° |
| 2026-05-01 10:28 | 45.23705 | 22.63641 | 37306 ft | 469 kts | 148° |
| 2026-05-01 10:29 | 45.15229 | 22.70613 | 37319 ft | 469 kts | 148° |
| 2026-05-01 10:30 | 45.03944 | 22.79856 | 37312 ft | 470 kts | 149° |
| 2026-05-01 10:31 | 44.92614 | 22.89094 | 37304 ft | 472 kts | 149° |
| 2026-05-01 10:32 | 44.84100 | 22.96008 | 37311 ft | 473 kts | 149° |
| 2026-05-01 10:33 | 44.72763 | 23.05178 | 37316 ft | 475 kts | 149° |
| 2026-05-01 10:34 | 44.64183 | 23.12089 | 37323 ft | 475 kts | 149° |
| 2026-05-01 10:34 | 44.58445 | 23.16698 | 37324 ft | 475 kts | 149° |
| 2026-05-01 10:35 | 44.49860 | 23.23575 | 37316 ft | 475 kts | 150° |
| 2026-05-01 10:35 | 44.44137 | 23.28145 | 37319 ft | 474 kts | 150° |
| 2026-05-01 10:36 | 44.35533 | 23.34998 | 37326 ft | 474 kts | 150° |
| 2026-05-01 10:37 | 44.29839 | 23.39520 | 37336 ft | 473 kts | 150° |
| 2026-05-01 10:37 | 44.21278 | 23.46299 | 37330 ft | 472 kts | 150° |
| 2026-05-01 10:38 | 44.15567 | 23.50810 | 37337 ft | 472 kts | 150° |
| 2026-05-01 10:38 | 44.09838 | 23.55324 | 37334 ft | 472 kts | 150° |
| 2026-05-01 10:39 | 44.04149 | 23.59797 | 37344 ft | 471 kts | 151° |
| 2026-05-01 10:39 | 43.98447 | 23.64270 | 37340 ft | 471 kts | 151° |
| 2026-05-01 10:40 | 43.92775 | 23.68710 | 37345 ft | 472 kts | 151° |
| 2026-05-01 10:40 | 43.87042 | 23.73190 | 37349 ft | 472 kts | 151° |
| 2026-05-01 10:41 | 43.81325 | 23.77557 | 37338 ft | 472 kts | 156° |
| 2026-05-01 10:41 | 43.75052 | 23.80025 | 37346 ft | 469 kts | 174° |
| 2026-05-01 10:42 | 43.71783 | 23.80262 | 37365 ft | 467 kts | 181° |
| 2026-05-01 10:42 | 43.65309 | 23.80229 | 37350 ft | 468 kts | 182° |
| 2026-05-01 10:43 | 43.58793 | 23.80245 | 37351 ft | 469 kts | 181° |
| 2026-05-01 10:43 | 43.52269 | 23.80329 | 37360 ft | 469 kts | 181° |
| 2026-05-01 10:44 | 43.45771 | 23.80417 | 37350 ft | 470 kts | 181° |
| 2026-05-01 10:44 | 43.39242 | 23.80487 | 37352 ft | 469 kts | 181° |
| 2026-05-01 10:45 | 43.32696 | 23.80555 | 37340 ft | 469 kts | 181° |
| 2026-05-01 10:45 | 43.26195 | 23.80629 | 37340 ft | 469 kts | 181° |
| 2026-05-01 10:46 | 43.19689 | 23.80730 | 37331 ft | 468 kts | 181° |
| 2026-05-01 10:46 | 43.13161 | 23.80824 | 37328 ft | 467 kts | 182° |
| 2026-05-01 10:47 | 43.06675 | 23.80873 | 37323 ft | 467 kts | 182° |
| 2026-05-01 10:47 | 43.00220 | 23.80931 | 37309 ft | 466 kts | 182° |
| 2026-05-01 10:48 | 42.93724 | 23.81024 | 37315 ft | 465 kts | 182° |
| 2026-05-01 10:48 | 42.87270 | 23.81118 | 37307 ft | 465 kts | 182° |
| 2026-05-01 10:49 | 42.80795 | 23.81208 | 37287 ft | 465 kts | 182° |
| 2026-05-01 10:49 | 42.74372 | 23.81295 | 37284 ft | 464 kts | 182° |
| 2026-05-01 10:50 | 42.67893 | 23.81407 | 37282 ft | 465 kts | 180° |
| 2026-05-01 10:50 | 42.61551 | 23.83013 | 37290 ft | 469 kts | 167° |
| 2026-05-01 10:51 | 42.55256 | 23.85350 | 37278 ft | 469 kts | 168° |
| 2026-05-01 10:51 | 42.48897 | 23.87558 | 37275 ft | 470 kts | 169° |
| 2026-05-01 10:52 | 42.42594 | 23.89717 | 37249 ft | 470 kts | 169° |
| 2026-05-01 10:52 | 42.36235 | 23.91903 | 37268 ft | 470 kts | 169° |
| 2026-05-01 10:53 | 42.29946 | 23.94021 | 37277 ft | 470 kts | 171° |
| 2026-05-01 10:53 | 42.23530 | 23.95649 | 37270 ft | 469 kts | 174° |
| 2026-05-01 10:54 | 42.17081 | 23.97133 | 37279 ft | 469 kts | 173° |
| 2026-05-01 10:54 | 42.10643 | 23.98675 | 37272 ft | 470 kts | 173° |
| 2026-05-01 10:55 | 42.04344 | 24.00217 | 37277 ft | 470 kts | 173° |
| 2026-05-01 10:55 | 41.97920 | 24.01781 | 37279 ft | 470 kts | 173° |
| 2026-05-01 10:56 | 41.91476 | 24.03338 | 37274 ft | 470 kts | 173° |
| 2026-05-01 10:56 | 41.85037 | 24.04890 | 37282 ft | 470 kts | 173° |
| 2026-05-01 10:57 | 41.78643 | 24.06433 | 37267 ft | 470 kts | 174° |
| 2026-05-01 10:57 | 41.72208 | 24.07981 | 37268 ft | 470 kts | 174° |
| 2026-05-01 10:58 | 41.65773 | 24.09525 | 37261 ft | 470 kts | 174° |
| 2026-05-01 10:58 | 41.59342 | 24.11065 | 37246 ft | 470 kts | 174° |
| 2026-05-01 10:59 | 41.53110 | 24.13633 | 37247 ft | 478 kts | 158° |
| 2026-05-01 10:59 | 41.47454 | 24.18396 | 37250 ft | 482 kts | 148° |
| 2026-05-01 11:00 | 41.41928 | 24.23465 | 37241 ft | 482 kts | 149° |
| 2026-05-01 11:00 | 41.36375 | 24.28455 | 37218 ft | 481 kts | 150° |
| 2026-05-01 11:01 | 41.30849 | 24.33357 | 37225 ft | 480 kts | 150° |
| 2026-05-01 11:01 | 41.25285 | 24.38283 | 37228 ft | 481 kts | 150° |
| 2026-05-01 11:02 | 41.19711 | 24.43197 | 37223 ft | 480 kts | 152° |
| 2026-05-01 11:02 | 41.13826 | 24.47267 | 37208 ft | 476 kts | 159° |
| 2026-05-01 11:03 | 41.07820 | 24.50968 | 37213 ft | 476 kts | 159° |
| 2026-05-01 11:03 | 41.01868 | 24.54723 | 37214 ft | 478 kts | 159° |
| 2026-05-01 11:04 | 40.95898 | 24.58556 | 37208 ft | 478 kts | 159° |
| 2026-05-01 11:04 | 40.89909 | 24.62385 | 37192 ft | 478 kts | 159° |
| 2026-05-01 11:05 | 40.83906 | 24.66151 | 37210 ft | 477 kts | 159° |
| 2026-05-01 11:05 | 40.77904 | 24.69906 | 37235 ft | 477 kts | 159° |
| 2026-05-01 11:06 | 40.71967 | 24.73720 | 37226 ft | 478 kts | 158° |
| 2026-05-01 11:06 | 40.66002 | 24.77587 | 37211 ft | 477 kts | 160° |
| 2026-05-01 11:07 | 40.57006 | 24.83228 | 37230 ft | 478 kts | 160° |
| 2026-05-01 11:07 | 40.51009 | 24.86998 | 37232 ft | 478 kts | 160° |
| 2026-05-01 11:08 | 40.45049 | 24.90736 | 37231 ft | 478 kts | 160° |
| 2026-05-01 11:09 | 40.36034 | 24.96377 | 37223 ft | 479 kts | 160° |
| 2026-05-01 11:09 | 40.30094 | 25.00085 | 37225 ft | 479 kts | 160° |
| 2026-05-01 11:10 | 40.21118 | 25.05675 | 37212 ft | 479 kts | 160° |
| 2026-05-01 11:10 | 40.15094 | 25.09418 | 37212 ft | 479 kts | 161° |
| 2026-05-01 11:11 | 40.09067 | 25.13155 | 37220 ft | 479 kts | 161° |
| 2026-05-01 11:11 | 40.03034 | 25.16889 | 37188 ft | 480 kts | 161° |
| 2026-05-01 11:12 | 39.97013 | 25.20609 | 37187 ft | 480 kts | 161° |
| 2026-05-01 11:12 | 39.91126 | 25.24655 | 37179 ft | 488 kts | 150° |
| 2026-05-01 11:13 | 39.85896 | 25.30399 | 37187 ft | 494 kts | 143° |
| 2026-05-01 11:13 | 39.80785 | 25.36366 | 37197 ft | 493 kts | 143° |
| 2026-05-01 11:14 | 39.75653 | 25.42267 | 37190 ft | 492 kts | 144° |
| 2026-05-01 11:14 | 39.70538 | 25.48065 | 37169 ft | 491 kts | 144° |
| 2026-05-01 11:15 | 39.65384 | 25.53876 | 37182 ft | 490 kts | 144° |
| 2026-05-01 11:15 | 39.60231 | 25.59677 | 37181 ft | 490 kts | 144° |
| 2026-05-01 11:16 | 39.55078 | 25.65471 | 37162 ft | 490 kts | 144° |
| 2026-05-01 11:16 | 39.49959 | 25.71216 | 37173 ft | 490 kts | 144° |
| 2026-05-01 11:17 | 39.44799 | 25.76995 | 37163 ft | 490 kts | 145° |
| 2026-05-01 11:17 | 39.39636 | 25.82766 | 37153 ft | 491 kts | 145° |
| 2026-05-01 11:18 | 39.35341 | 25.87558 | 37153 ft | 491 kts | 145° |
| 2026-05-01 11:18 | 39.29318 | 25.94266 | 37146 ft | 492 kts | 145° |
| 2026-05-01 11:19 | 39.24082 | 25.99950 | 37138 ft | 492 kts | 147° |
| 2026-05-01 11:19 | 39.19766 | 26.04543 | 37138 ft | 493 kts | 147° |
| 2026-05-01 11:20 | 39.14469 | 26.10180 | 37094 ft | 494 kts | 147° |
| 2026-05-01 11:20 | 39.08314 | 26.16746 | 37121 ft | 495 kts | 147° |
| 2026-05-01 11:21 | 39.03012 | 26.22396 | 37122 ft | 495 kts | 147° |
| 2026-05-01 11:21 | 38.98607 | 26.27080 | 37100 ft | 496 kts | 147° |
| 2026-05-01 11:22 | 38.93287 | 26.32726 | 37122 ft | 496 kts | 147° |
| 2026-05-01 11:22 | 38.87930 | 26.38399 | 36528 ft | 504 kts | 147° |
| 2026-05-01 11:23 | 38.85229 | 26.41258 | 35983 ft | 502 kts | 147° |
| 2026-05-01 11:23 | 38.82535 | 26.44114 | 35340 ft | 504 kts | 147° |
| 2026-05-01 11:23 | 38.79858 | 26.47044 | 34635 ft | 507 kts | 146° |
| 2026-05-01 11:23 | 38.77200 | 26.50026 | 33930 ft | 510 kts | 146° |
| 2026-05-01 11:24 | 38.74577 | 26.52997 | 33262 ft | 509 kts | 146° |
| 2026-05-01 11:24 | 38.71945 | 26.55985 | 32786 ft | 503 kts | 146° |
| 2026-05-01 11:24 | 38.66742 | 26.61848 | 31812 ft | 493 kts | 146° |
| 2026-05-01 11:25 | 38.64171 | 26.64723 | 31338 ft | 488 kts | 146° |
| 2026-05-01 11:25 | 38.59091 | 26.70380 | 30378 ft | 480 kts | 146° |
| 2026-05-01 11:25 | 38.56581 | 26.73170 | 29899 ft | 476 kts | 146° |
| 2026-05-01 11:26 | 38.54110 | 26.75918 | 29385 ft | 464 kts | 146° |
| 2026-05-01 11:26 | 38.49412 | 26.81144 | 28504 ft | 440 kts | 146° |
| 2026-05-01 11:26 | 38.47106 | 26.83696 | 28061 ft | 437 kts | 147° |
| 2026-05-01 11:27 | 38.44815 | 26.86226 | 27606 ft | 434 kts | 146° |
| 2026-05-01 11:27 | 38.42540 | 26.88738 | 27165 ft | 431 kts | 146° |
| 2026-05-01 11:27 | 38.40286 | 26.91228 | 26740 ft | 427 kts | 146° |
| 2026-05-01 11:27 | 38.38046 | 26.93701 | 26315 ft | 425 kts | 146° |
| 2026-05-01 11:28 | 38.35817 | 26.96161 | 25880 ft | 423 kts | 146° |
| 2026-05-01 11:28 | 38.33603 | 26.98607 | 25459 ft | 420 kts | 146° |
| 2026-05-01 11:28 | 38.31390 | 27.00730 | 25050 ft | 411 kts | 155° |
| 2026-05-01 11:29 | 38.26347 | 27.03756 | 24192 ft | 396 kts | 165° |
| 2026-05-01 11:29 | 38.23821 | 27.05127 | 23790 ft | 393 kts | 164° |
| 2026-05-01 11:29 | 38.18824 | 27.07864 | 22873 ft | 389 kts | 164° |
| 2026-05-01 11:30 | 38.16354 | 27.09225 | 22429 ft | 386 kts | 164° |
| 2026-05-01 11:30 | 38.13903 | 27.10580 | 22037 ft | 382 kts | 163° |
| 2026-05-01 11:30 | 38.11476 | 27.11922 | 21607 ft | 379 kts | 163° |
| 2026-05-01 11:30 | 38.09098 | 27.13236 | 21207 ft | 376 kts | 163° |
| 2026-05-01 11:31 | 38.06712 | 27.14555 | 20819 ft | 373 kts | 163° |
| 2026-05-01 11:31 | 38.04339 | 27.15869 | 20409 ft | 372 kts | 163° |
| 2026-05-01 11:31 | 38.01974 | 27.17178 | 19998 ft | 370 kts | 163° |
| 2026-05-01 11:31 | 37.99629 | 27.18467 | 19610 ft | 367 kts | 163° |
| 2026-05-01 11:32 | 37.97286 | 27.19756 | 19199 ft | 366 kts | 163° |
| 2026-05-01 11:32 | 37.94957 | 27.21037 | 18832 ft | 364 kts | 163° |
| 2026-05-01 11:32 | 37.92642 | 27.22310 | 18449 ft | 362 kts | 163° |
| 2026-05-01 11:32 | 37.90341 | 27.23575 | 18020 ft | 360 kts | 163° |
| 2026-05-01 11:33 | 37.88078 | 27.24819 | 17620 ft | 358 kts | 163° |
| 2026-05-01 11:33 | 37.85794 | 27.26072 | 17202 ft | 357 kts | 163° |
| 2026-05-01 11:33 | 37.83517 | 27.27321 | 16798 ft | 357 kts | 163° |
| 2026-05-01 11:33 | 37.81247 | 27.28566 | 16379 ft | 355 kts | 163° |
| 2026-05-01 11:34 | 37.78990 | 27.29804 | 16011 ft | 352 kts | 162° |
| 2026-05-01 11:34 | 37.76748 | 27.31032 | 15637 ft | 351 kts | 162° |
| 2026-05-01 11:34 | 37.74503 | 27.32259 | 15232 ft | 352 kts | 162° |
| 2026-05-01 11:34 | 37.72259 | 27.33487 | 14825 ft | 351 kts | 162° |
| 2026-05-01 11:35 | 37.70027 | 27.34704 | 14407 ft | 347 kts | 162° |
| 2026-05-01 11:35 | 37.67826 | 27.35902 | 14059 ft | 341 kts | 162° |
| 2026-05-01 11:35 | 37.65686 | 27.37073 | 13674 ft | 340 kts | 162° |
| 2026-05-01 11:35 | 37.63523 | 27.38258 | 13258 ft | 338 kts | 162° |
| 2026-05-01 11:36 | 37.61367 | 27.39463 | 12731 ft | 342 kts | 160° |
| 2026-05-01 11:36 | 37.59207 | 27.40722 | 12303 ft | 341 kts | 160° |
| 2026-05-01 11:36 | 37.57067 | 27.41981 | 11903 ft | 339 kts | 160° |
| 2026-05-01 11:36 | 37.54933 | 27.43231 | 11493 ft | 337 kts | 160° |
| 2026-05-01 11:37 | 37.52813 | 27.44467 | 11146 ft | 335 kts | 160° |
| 2026-05-01 11:37 | 37.50696 | 27.45695 | 10772 ft | 335 kts | 160° |
| 2026-05-01 11:37 | 37.48648 | 27.46995 | 10482 ft | 330 kts | 155° |
| 2026-05-01 11:37 | 37.46709 | 27.48414 | 10390 ft | 316 kts | 154° |
| 2026-05-01 11:38 | 37.44850 | 27.49800 | 10216 ft | 304 kts | 154° |
| 2026-05-01 11:38 | 37.43076 | 27.51123 | 10115 ft | 288 kts | 154° |
| 2026-05-01 11:38 | 37.41371 | 27.52387 | 9994 ft | 281 kts | 154° |
| 2026-05-01 11:38 | 37.39690 | 27.53624 | 9724 ft | 279 kts | 154° |
| 2026-05-01 11:39 | 37.38021 | 27.54845 | 9472 ft | 277 kts | 154° |
| 2026-05-01 11:39 | 37.36357 | 27.56059 | 9200 ft | 276 kts | 154° |
| 2026-05-01 11:39 | 37.34720 | 27.57249 | 8911 ft | 275 kts | 154° |
| 2026-05-01 11:39 | 37.33070 | 27.58450 | 8658 ft | 273 kts | 154° |
| 2026-05-01 11:40 | 37.31428 | 27.59644 | 8399 ft | 272 kts | 154° |
| 2026-05-01 11:40 | 37.29788 | 27.60840 | 8133 ft | 273 kts | 153° |
| 2026-05-01 11:40 | 37.28142 | 27.62040 | 7876 ft | 274 kts | 153° |
| 2026-05-01 11:40 | 37.26516 | 27.63303 | 7580 ft | 277 kts | 143° |
| 2026-05-01 11:41 | 37.25392 | 27.65255 | 7331 ft | 279 kts | 113° |
| 2026-05-01 11:41 | 37.24781 | 27.67554 | 7072 ft | 277 kts | 108° |
| 2026-05-01 11:41 | 37.24249 | 27.69839 | 6810 ft | 275 kts | 107° |
| 2026-05-01 11:41 | 37.23720 | 27.72143 | 6542 ft | 274 kts | 107° |
| 2026-05-01 11:42 | 37.23188 | 27.74439 | 6312 ft | 275 kts | 107° |
| 2026-05-01 11:42 | 37.22644 | 27.76761 | 5996 ft | 280 kts | 107° |
| 2026-05-01 11:42 | 37.22085 | 27.79123 | 5703 ft | 284 kts | 107° |
| 2026-05-01 11:42 | 37.21524 | 27.81484 | 5560 ft | 279 kts | 107° |
| 2026-05-01 11:43 | 37.20976 | 27.83768 | 5426 ft | 267 kts | 107° |
| 2026-05-01 11:43 | 37.20454 | 27.85941 | 5304 ft | 253 kts | 107° |
| 2026-05-01 11:43 | 37.19961 | 27.87985 | 5235 ft | 246 kts | 108° |
| 2026-05-01 11:44 | 37.18982 | 27.92047 | 4898 ft | 242 kts | 107° |
| 2026-05-01 11:44 | 37.18539 | 27.94051 | 4790 ft | 233 kts | 97° |
| 2026-05-01 11:44 | 37.18843 | 27.95965 | 4799 ft | 226 kts | 54° |
| 2026-05-01 11:44 | 37.20043 | 27.97129 | 4807 ft | 220 kts | 13° |
| 2026-05-01 11:45 | 37.21551 | 27.97135 | 4798 ft | 220 kts | 336° |
| 2026-05-01 11:45 | 37.22757 | 27.96051 | 4771 ft | 213 kts | 301° |
| 2026-05-01 11:45 | 37.23188 | 27.94322 | 4769 ft | 210 kts | 263° |
| 2026-05-01 11:45 | 37.22546 | 27.92744 | 4765 ft | 208 kts | 218° |
| 2026-05-01 11:46 | 37.21315 | 27.91890 | 4804 ft | 205 kts | 212° |
| 2026-05-01 11:46 | 37.20441 | 27.90582 | 4527 ft | 193 kts | 262° |
| 2026-05-01 11:46 | 37.20479 | 27.88895 | 4240 ft | 202 kts | 277° |
| 2026-05-01 11:46 | 37.20672 | 27.87171 | 4077 ft | 196 kts | 279° |
| 2026-05-01 11:47 | 37.20916 | 27.85495 | 3693 ft | 201 kts | 281° |
| 2026-05-01 11:47 | 37.21218 | 27.83761 | 3392 ft | 201 kts | 282° |
| 2026-05-01 11:47 | 37.21532 | 27.82106 | 3252 ft | 190 kts | 282° |
| 2026-05-01 11:47 | 37.21794 | 27.80510 | 3124 ft | 185 kts | 282° |
| 2026-05-01 11:48 | 37.22183 | 27.78992 | 3070 ft | 179 kts | 291° |
| 2026-05-01 11:48 | 37.22538 | 27.77554 | 3002 ft | 172 kts | 281° |
| 2026-05-01 11:48 | 37.22824 | 27.76127 | 2996 ft | 164 kts | 288° |
| 2026-05-01 11:48 | 37.23197 | 27.74823 | 2878 ft | 155 kts | 284° |
| 2026-05-01 11:49 | 37.23413 | 27.73500 | 2499 ft | 153 kts | 287° |
| 2026-05-01 11:49 | 37.23759 | 27.72241 | 2102 ft | 155 kts | 287° |
| 2026-05-01 11:49 | 37.24070 | 27.70939 | 1723 ft | 155 kts | 285° |
| 2026-05-01 11:49 | 37.24390 | 27.69588 | 1334 ft | 180 kts | 285° |
| 2026-05-01 11:50 | 37.24769 | 27.67996 | 1294 ft | 193 kts | 285° |
| 2026-05-01 11:50 | 37.25143 | 27.66381 | 1153 ft | 196 kts | 285° |
| 2026-05-01 11:50 | 37.25512 | 27.64686 | 929 ft | 204 kts | 284° |
| 2026-05-01 11:50 | 37.25960 | 27.63007 | 1210 ft | 198 kts | 287° |
| 2026-05-01 11:51 | 37.26364 | 27.61388 | 1924 ft | 193 kts | 286° |
| 2026-05-01 11:51 | 37.26907 | 27.59742 | 2689 ft | 221 kts | 290° |
| 2026-05-01 11:51 | 37.27433 | 27.57830 | 3421 ft | 241 kts | 289° |
| 2026-05-01 11:51 | 37.28306 | 27.55898 | 3809 ft | 268 kts | 318° |
| 2026-05-01 11:52 | 37.29937 | 27.54775 | 3860 ft | 278 kts | 349° |
| 2026-05-01 11:52 | 37.31806 | 27.55001 | 3920 ft | 281 kts | 22° |
| 2026-05-01 11:52 | 37.33334 | 27.56444 | 3954 ft | 277 kts | 52° |
| 2026-05-01 11:52 | 37.34010 | 27.58674 | 4000 ft | 274 kts | 81° |
| 2026-05-01 11:53 | 37.34182 | 27.61059 | 3930 ft | 274 kts | 91° |
| 2026-05-01 11:53 | 37.33818 | 27.63346 | 3964 ft | 265 kts | 117° |
| 2026-05-01 11:53 | 37.32870 | 27.65337 | 3992 ft | 272 kts | 124° |
| 2026-05-01 11:53 | 37.31845 | 27.67348 | 3996 ft | 275 kts | 124° |
| 2026-05-01 11:54 | 37.30810 | 27.69374 | 3986 ft | 275 kts | 124° |
| 2026-05-01 11:54 | 37.29781 | 27.71399 | 3979 ft | 274 kts | 124° |
| 2026-05-01 11:54 | 37.28757 | 27.73420 | 3974 ft | 276 kts | 124° |
| 2026-05-01 11:54 | 37.27744 | 27.75425 | 3988 ft | 275 kts | 123° |
| 2026-05-01 11:55 | 37.26717 | 27.77460 | 3912 ft | 276 kts | 124° |
| 2026-05-01 11:55 | 37.25695 | 27.79485 | 3887 ft | 270 kts | 123° |
| 2026-05-01 11:55 | 37.24663 | 27.81364 | 3860 ft | 252 kts | 137° |
| 2026-05-01 11:55 | 37.23220 | 27.82301 | 3883 ft | 226 kts | 177° |
| 2026-05-01 11:56 | 37.21797 | 27.81863 | 3878 ft | 207 kts | 220° |
| 2026-05-01 11:56 | 37.21044 | 27.80407 | 3762 ft | 200 kts | 263° |
| 2026-05-01 11:56 | 37.21332 | 27.78801 | 3648 ft | 191 kts | 306° |
| 2026-05-01 11:56 | 37.22238 | 27.77601 | 3504 ft | 189 kts | 306° |
| 2026-05-01 11:57 | 37.22753 | 27.76103 | 3330 ft | 189 kts | 286° |
| 2026-05-01 11:57 | 37.23204 | 27.74555 | 2824 ft | 194 kts | 291° |
| 2026-05-01 11:57 | 37.23648 | 27.72945 | 2028 ft | 200 kts | 286° |
| 2026-05-01 11:57 | 37.24043 | 27.71266 | 1335 ft | 197 kts | 285° |
| 2026-05-01 11:58 | 37.24403 | 27.69623 | 570 ft | 194 kts | 285° |
| 2026-05-01 11:58 | 37.24750 | 27.68046 | 173 ft | 176 kts | 289° |
| 2026-05-01 11:58 | 37.25331 | 27.65652 | 13 ft | 83 kts | 285° |
| 2026-05-01 11:59 | 37.25427 | 27.65229 | 14 ft | 26 kts | 286° |
| 2026-05-01 11:59 | 37.25479 | 27.64995 | 14 ft | 21 kts | 281° |
| 2026-05-01 11:59 | 37.25445 | 27.64917 | 14 ft | 9 kts | 222° |
| 2026-05-01 12:00 | 37.25357 | 27.64893 | 14 ft | 7 kts | 174° |
| 2026-05-01 12:00 | 37.25309 | 27.64953 | 15 ft | 14 kts | 103° |
| 2026-05-01 12:00 | 37.25233 | 27.65279 | 13 ft | 25 kts | 106° |
| 2026-05-01 12:01 | 37.25187 | 27.65471 | 14 ft | 24 kts | 107° |
| 2026-05-01 12:01 | 37.25136 | 27.65687 | 16 ft | 28 kts | 106° |
| 2026-05-01 12:01 | 37.25088 | 27.65894 | 16 ft | 17 kts | 106° |
| 2026-05-01 12:01 | 37.25016 | 27.65959 | 18 ft | 14 kts | 191° |
| 2026-05-01 12:02 | 37.24922 | 27.65914 | 16 ft | 0 kts | 197° |
| 2026-05-01 12:02 | 37.24902 | 27.65906 | 16 ft | 6 kts | 197° |
| 2026-05-01 12:02 | 37.24847 | 27.65923 | 16 ft | 11 kts | 120° |
| 2026-05-01 12:02 | 37.24818 | 27.66033 | 18 ft | 16 kts | 107° |
| 2026-05-01 12:03 | 37.24786 | 27.66164 | 17 ft | 11 kts | 106° |
| 2026-05-01 12:03 | 37.24768 | 27.66276 | 18 ft | 14 kts | 72° |
| 2026-05-01 12:03 | 37.24825 | 27.66330 | 19 ft | 2 kts | 65° |
| 2026-05-01 12:03 | 37.24826 | 27.66366 | 18 ft | 6 kts | 111° |
| 2026-05-01 12:04 | 37.24802 | 27.66438 | 18 ft | 12 kts | 110° |
| 2026-05-01 12:04 | 37.24781 | 27.66499 | 18 ft | 3 kts | 139° |
| 2026-05-01 12:04 | 37.24742 | 27.66497 | 18 ft | 6 kts | 191° |
| 2026-05-01 12:04 | 37.24716 | 27.66488 | 18 ft | 3 kts | 197° |
| 2026-05-01 12:05 | 37.24713 | 27.66487 | 18 ft | 0 kts | 196° |
| 2026-05-01 12:05 | 37.24704 | 27.66484 | 18 ft | 0 kts | 196° |
| 2026-05-01 12:06 | 37.24703 | 27.66480 | 18 ft | 0 kts | 217° |